sensor_id;sensor_type;location;lat;lon;timestamp;P1;durP1;ratioP1;P2;durP2;ratioP2
48623;SDS011;34422;45.802;16.114;2022-11-28T00:02:19;88.90;;;54.53;;
48623;SDS011;34422;45.802;16.114;2022-11-28T00:04:49;99.28;;;57.75;;
48623;SDS011;34422;45.802;16.114;2022-11-28T00:07:16;88.03;;;53.67;;
48623;SDS011;34422;45.802;16.114;2022-11-28T00:09:43;85.80;;;51.92;;
48623;SDS011;34422;45.802;16.114;2022-11-28T00:12:10;81.50;;;48.75;;
48623;SDS011;34422;45.802;16.114;2022-11-28T00:14:36;79.47;;;50.28;;
48623;SDS011;34422;45.802;16.114;2022-11-28T00:17:03;80.95;;;49.00;;
48623;SDS011;34422;45.802;16.114;2022-11-28T00:19:30;76.38;;;47.30;;
48623;SDS011;34422;45.802;16.114;2022-11-28T00:21:57;74.65;;;46.88;;
48623;SDS011;34422;45.802;16.114;2022-11-28T00:24:23;82.05;;;48.53;;
48623;SDS011;34422;45.802;16.114;2022-11-28T00:26:51;78.20;;;48.08;;
48623;SDS011;34422;45.802;16.114;2022-11-28T00:29:18;76.00;;;48.30;;
48623;SDS011;34422;45.802;16.114;2022-11-28T00:31:45;77.80;;;49.13;;
48623;SDS011;34422;45.802;16.114;2022-11-28T00:34:12;74.85;;;46.47;;
48623;SDS011;34422;45.802;16.114;2022-11-28T00:36:41;78.25;;;47.35;;
48623;SDS011;34422;45.802;16.114;2022-11-28T00:39:10;82.38;;;48.63;;
48623;SDS011;34422;45.802;16.114;2022-11-28T00:41:37;76.28;;;46.60;;
48623;SDS011;34422;45.802;16.114;2022-11-28T00:44:03;71.90;;;44.90;;
48623;SDS011;34422;45.802;16.114;2022-11-28T00:46:30;72.22;;;42.08;;
48623;SDS011;34422;45.802;16.114;2022-11-28T00:48:58;70.88;;;44.17;;
48623;SDS011;34422;45.802;16.114;2022-11-28T00:51:29;77.22;;;44.20;;
48623;SDS011;34422;45.802;16.114;2022-11-28T00:53:58;67.32;;;42.10;;
48623;SDS011;34422;45.802;16.114;2022-11-28T00:56:31;74.65;;;43.05;;
48623;SDS011;34422;45.802;16.114;2022-11-28T00:59:00;71.63;;;44.95;;
48623;SDS011;34422;45.802;16.114;2022-11-28T01:01:31;66.20;;;42.75;;
48623;SDS011;34422;45.802;16.114;2022-11-28T01:04:01;69.03;;;43.03;;
48623;SDS011;34422;45.802;16.114;2022-11-28T01:06:32;69.43;;;41.13;;
48623;SDS011;34422;45.802;16.114;2022-11-28T01:09:05;64.75;;;41.10;;
48623;SDS011;34422;45.802;16.114;2022-11-28T01:11:37;67.63;;;42.20;;
48623;SDS011;34422;45.802;16.114;2022-11-28T01:14:05;69.43;;;41.75;;
48623;SDS011;34422;45.802;16.114;2022-11-28T01:16:32;65.63;;;37.00;;
48623;SDS011;34422;45.802;16.114;2022-11-28T01:18:59;64.35;;;38.13;;
48623;SDS011;34422;45.802;16.114;2022-11-28T01:21:26;54.35;;;34.03;;
48623;SDS011;34422;45.802;16.114;2022-11-28T01:23:53;50.80;;;27.58;;
48623;SDS011;34422;45.802;16.114;2022-11-28T01:26:21;46.67;;;28.25;;
48623;SDS011;34422;45.802;16.114;2022-11-28T01:28:50;43.92;;;25.90;;
48623;SDS011;34422;45.802;16.114;2022-11-28T01:31:18;43.85;;;26.85;;
48623;SDS011;34422;45.802;16.114;2022-11-28T01:33:47;60.53;;;35.28;;
48623;SDS011;34422;45.802;16.114;2022-11-28T01:36:14;53.33;;;30.73;;
48623;SDS011;34422;45.802;16.114;2022-11-28T01:38:42;48.70;;;30.40;;
48623;SDS011;34422;45.802;16.114;2022-11-28T01:41:10;47.55;;;29.15;;
48623;SDS011;34422;45.802;16.114;2022-11-28T01:43:54;48.05;;;28.65;;
48623;SDS011;34422;45.802;16.114;2022-11-28T01:46:24;53.72;;;28.98;;
48623;SDS011;34422;45.802;16.114;2022-11-28T01:48:51;47.05;;;28.75;;
48623;SDS011;34422;45.802;16.114;2022-11-28T01:51:20;47.65;;;26.42;;
48623;SDS011;34422;45.802;16.114;2022-11-28T01:53:47;47.83;;;27.95;;
48623;SDS011;34422;45.802;16.114;2022-11-28T01:56:16;42.13;;;25.23;;
48623;SDS011;34422;45.802;16.114;2022-11-28T02:01:16;46.17;;;25.00;;
48623;SDS011;34422;45.802;16.114;2022-11-28T02:03:45;48.65;;;27.75;;
48623;SDS011;34422;45.802;16.114;2022-11-28T02:06:15;44.55;;;25.52;;
48623;SDS011;34422;45.802;16.114;2022-11-28T02:08:45;47.83;;;27.15;;
48623;SDS011;34422;45.802;16.114;2022-11-28T02:22:04;51.45;;;24.95;;
48623;SDS011;34422;45.802;16.114;2022-11-28T02:30:42;52.65;;;26.60;;
48623;SDS011;34422;45.802;16.114;2022-11-28T02:33:15;50.78;;;24.35;;
48623;SDS011;34422;45.802;16.114;2022-11-28T02:35:54;51.95;;;25.08;;
48623;SDS011;34422;45.802;16.114;2022-11-28T02:46:31;49.45;;;24.00;;
48623;SDS011;34422;45.802;16.114;2022-11-28T02:49:07;48.15;;;23.25;;
48623;SDS011;34422;45.802;16.114;2022-11-28T02:51:46;47.25;;;23.95;;
48623;SDS011;34422;45.802;16.114;2022-11-28T02:54:18;48.10;;;24.27;;
48623;SDS011;34422;45.802;16.114;2022-11-28T02:56:48;50.95;;;24.92;;
48623;SDS011;34422;45.802;16.114;2022-11-28T03:01:58;53.50;;;26.77;;
48623;SDS011;34422;45.802;16.114;2022-11-28T03:13:48;60.03;;;27.52;;
48623;SDS011;34422;45.802;16.114;2022-11-28T03:16:40;62.90;;;28.13;;
48623;SDS011;34422;45.802;16.114;2022-11-28T03:19:26;73.30;;;27.85;;
48623;SDS011;34422;45.802;16.114;2022-11-28T03:24:45;58.25;;;26.67;;
48623;SDS011;34422;45.802;16.114;2022-11-28T03:30:01;80.85;;;29.83;;
48623;SDS011;34422;45.802;16.114;2022-11-28T03:32:37;75.28;;;28.58;;
48623;SDS011;34422;45.802;16.114;2022-11-28T03:35:11;59.33;;;27.52;;
48623;SDS011;34422;45.802;16.114;2022-11-28T03:37:44;80.70;;;31.35;;
48623;SDS011;34422;45.802;16.114;2022-11-28T03:40:36;63.28;;;26.85;;
48623;SDS011;34422;45.802;16.114;2022-11-28T03:43:08;70.93;;;28.00;;
48623;SDS011;34422;45.802;16.114;2022-11-28T03:45:40;71.00;;;29.40;;
48623;SDS011;34422;45.802;16.114;2022-11-28T03:48:14;82.30;;;30.65;;
48623;SDS011;34422;45.802;16.114;2022-11-28T03:50:55;71.60;;;29.00;;
48623;SDS011;34422;45.802;16.114;2022-11-28T03:53:34;73.57;;;28.33;;
48623;SDS011;34422;45.802;16.114;2022-11-28T04:04:13;94.65;;;30.33;;
48623;SDS011;34422;45.802;16.114;2022-11-28T04:06:52;74.15;;;27.67;;
48623;SDS011;34422;45.802;16.114;2022-11-28T04:15:08;113.90;;;36.15;;
48623;SDS011;34422;45.802;16.114;2022-11-28T04:17:45;77.45;;;29.05;;
48623;SDS011;34422;45.802;16.114;2022-11-28T04:23:09;116.70;;;33.20;;
48623;SDS011;34422;45.802;16.114;2022-11-28T04:25:39;135.90;;;35.63;;
48623;SDS011;34422;45.802;16.114;2022-11-28T04:28:12;145.25;;;36.08;;
48623;SDS011;34422;45.802;16.114;2022-11-28T04:30:43;101.00;;;33.83;;
48623;SDS011;34422;45.802;16.114;2022-11-28T04:33:12;112.28;;;35.33;;
48623;SDS011;34422;45.802;16.114;2022-11-28T04:35:44;111.05;;;35.15;;
48623;SDS011;34422;45.802;16.114;2022-11-28T04:38:15;89.60;;;31.83;;
48623;SDS011;34422;45.802;16.114;2022-11-28T04:40:47;160.20;;;40.42;;
48623;SDS011;34422;45.802;16.114;2022-11-28T04:43:19;97.50;;;33.67;;
48623;SDS011;34422;45.802;16.114;2022-11-28T04:45:53;111.13;;;35.08;;
48623;SDS011;34422;45.802;16.114;2022-11-28T04:48:25;146.35;;;35.42;;
48623;SDS011;34422;45.802;16.114;2022-11-28T04:50:53;177.82;;;40.85;;
48623;SDS011;34422;45.802;16.114;2022-11-28T04:56:27;127.80;;;36.20;;
48623;SDS011;34422;45.802;16.114;2022-11-28T04:59:09;106.28;;;33.28;;
48623;SDS011;34422;45.802;16.114;2022-11-28T05:01:38;195.27;;;41.72;;
48623;SDS011;34422;45.802;16.114;2022-11-28T05:04:07;85.13;;;32.08;;
48623;SDS011;34422;45.802;16.114;2022-11-28T05:06:34;170.45;;;35.88;;
48623;SDS011;34422;45.802;16.114;2022-11-28T05:09:02;156.23;;;38.13;;
48623;SDS011;34422;45.802;16.114;2022-11-28T05:11:30;118.32;;;35.80;;
48623;SDS011;34422;45.802;16.114;2022-11-28T05:13:57;220.27;;;42.58;;
48623;SDS011;34422;45.802;16.114;2022-11-28T05:16:24;185.70;;;40.05;;
48623;SDS011;34422;45.802;16.114;2022-11-28T05:18:51;125.82;;;33.42;;
48623;SDS011;34422;45.802;16.114;2022-11-28T05:21:18;195.15;;;42.25;;
48623;SDS011;34422;45.802;16.114;2022-11-28T05:23:45;193.45;;;41.97;;
48623;SDS011;34422;45.802;16.114;2022-11-28T05:26:16;179.80;;;39.80;;
48623;SDS011;34422;45.802;16.114;2022-11-28T05:28:46;128.57;;;36.88;;
48623;SDS011;34422;45.802;16.114;2022-11-28T05:31:16;100.68;;;32.55;;
48623;SDS011;34422;45.802;16.114;2022-11-28T05:33:44;115.18;;;32.85;;
48623;SDS011;34422;45.802;16.114;2022-11-28T05:36:12;115.30;;;37.35;;
48623;SDS011;34422;45.802;16.114;2022-11-28T05:38:40;92.53;;;33.63;;
48623;SDS011;34422;45.802;16.114;2022-11-28T05:41:08;107.07;;;35.03;;
48623;SDS011;34422;45.802;16.114;2022-11-28T05:43:36;133.30;;;34.90;;
48623;SDS011;34422;45.802;16.114;2022-11-28T05:46:03;105.97;;;34.33;;
48623;SDS011;34422;45.802;16.114;2022-11-28T05:48:32;100.07;;;32.75;;
48623;SDS011;34422;45.802;16.114;2022-11-28T05:50:58;134.10;;;38.28;;
48623;SDS011;34422;45.802;16.114;2022-11-28T05:53:25;126.55;;;36.72;;
48623;SDS011;34422;45.802;16.114;2022-11-28T05:55:52;107.93;;;33.67;;
48623;SDS011;34422;45.802;16.114;2022-11-28T05:58:19;170.98;;;43.05;;
48623;SDS011;34422;45.802;16.114;2022-11-28T06:00:46;164.15;;;42.35;;
48623;SDS011;34422;45.802;16.114;2022-11-28T06:03:13;100.95;;;33.25;;
48623;SDS011;34422;45.802;16.114;2022-11-28T06:05:41;205.68;;;42.00;;
48623;SDS011;34422;45.802;16.114;2022-11-28T06:08:11;147.60;;;39.90;;
48623;SDS011;34422;45.802;16.114;2022-11-28T06:10:39;178.32;;;45.58;;
48623;SDS011;34422;45.802;16.114;2022-11-28T06:13:06;261.70;;;50.10;;
48623;SDS011;34422;45.802;16.114;2022-11-28T06:15:33;114.32;;;34.60;;
48623;SDS011;34422;45.802;16.114;2022-11-28T06:18:00;186.65;;;46.53;;
48623;SDS011;34422;45.802;16.114;2022-11-28T06:20:27;193.45;;;44.72;;
48623;SDS011;34422;45.802;16.114;2022-11-28T06:22:53;164.20;;;40.33;;
48623;SDS011;34422;45.802;16.114;2022-11-28T06:25:20;133.88;;;37.17;;
48623;SDS011;34422;45.802;16.114;2022-11-28T06:27:47;117.65;;;38.88;;
48623;SDS011;34422;45.802;16.114;2022-11-28T06:30:13;134.98;;;40.08;;
48623;SDS011;34422;45.802;16.114;2022-11-28T06:32:40;133.65;;;40.38;;
48623;SDS011;34422;45.802;16.114;2022-11-28T06:35:07;127.63;;;39.45;;
48623;SDS011;34422;45.802;16.114;2022-11-28T06:37:34;151.00;;;44.45;;
48623;SDS011;34422;45.802;16.114;2022-11-28T06:40:01;118.00;;;38.45;;
48623;SDS011;34422;45.802;16.114;2022-11-28T06:42:28;153.00;;;41.40;;
48623;SDS011;34422;45.802;16.114;2022-11-28T06:44:55;110.78;;;37.58;;
48623;SDS011;34422;45.802;16.114;2022-11-28T06:47:22;120.50;;;41.72;;
48623;SDS011;34422;45.802;16.114;2022-11-28T06:49:48;134.63;;;41.33;;
48623;SDS011;34422;45.802;16.114;2022-11-28T06:52:15;127.72;;;39.97;;
48623;SDS011;34422;45.802;16.114;2022-11-28T06:54:42;96.03;;;36.72;;
48623;SDS011;34422;45.802;16.114;2022-11-28T06:57:09;143.38;;;39.17;;
48623;SDS011;34422;45.802;16.114;2022-11-28T06:59:37;182.02;;;41.85;;
48623;SDS011;34422;45.802;16.114;2022-11-28T07:02:03;160.63;;;39.97;;
48623;SDS011;34422;45.802;16.114;2022-11-28T07:04:31;146.48;;;40.42;;
48623;SDS011;34422;45.802;16.114;2022-11-28T07:06:59;175.77;;;40.72;;
48623;SDS011;34422;45.802;16.114;2022-11-28T07:09:25;132.38;;;38.40;;
48623;SDS011;34422;45.802;16.114;2022-11-28T07:11:52;123.82;;;38.53;;
48623;SDS011;34422;45.802;16.114;2022-11-28T07:14:19;111.38;;;37.35;;
48623;SDS011;34422;45.802;16.114;2022-11-28T07:16:46;135.50;;;36.80;;
48623;SDS011;34422;45.802;16.114;2022-11-28T07:19:14;117.28;;;35.75;;
48623;SDS011;34422;45.802;16.114;2022-11-28T07:21:41;122.40;;;35.35;;
48623;SDS011;34422;45.802;16.114;2022-11-28T07:24:08;101.47;;;33.03;;
48623;SDS011;34422;45.802;16.114;2022-11-28T07:26:38;92.47;;;31.98;;
48623;SDS011;34422;45.802;16.114;2022-11-28T07:29:12;96.20;;;31.23;;
48623;SDS011;34422;45.802;16.114;2022-11-28T07:34:08;89.22;;;28.13;;
48623;SDS011;34422;45.802;16.114;2022-11-28T07:36:36;93.82;;;35.28;;
48623;SDS011;34422;45.802;16.114;2022-11-28T07:39:04;107.25;;;34.35;;
48623;SDS011;34422;45.802;16.114;2022-11-28T07:41:34;108.95;;;45.35;;
48623;SDS011;34422;45.802;16.114;2022-11-28T07:44:01;91.00;;;35.20;;
48623;SDS011;34422;45.802;16.114;2022-11-28T07:46:30;86.10;;;35.05;;
48623;SDS011;34422;45.802;16.114;2022-11-28T07:48:58;79.75;;;32.47;;
48623;SDS011;34422;45.802;16.114;2022-11-28T07:51:27;83.85;;;31.83;;
48623;SDS011;34422;45.802;16.114;2022-11-28T07:53:56;76.22;;;29.73;;
48623;SDS011;34422;45.802;16.114;2022-11-28T07:56:25;78.60;;;36.53;;
48623;SDS011;34422;45.802;16.114;2022-11-28T07:58:53;71.95;;;31.13;;
48623;SDS011;34422;45.802;16.114;2022-11-28T08:01:22;67.60;;;28.27;;
48623;SDS011;34422;45.802;16.114;2022-11-28T08:03:50;69.72;;;27.77;;
48623;SDS011;34422;45.802;16.114;2022-11-28T08:06:19;66.50;;;27.52;;
48623;SDS011;34422;45.802;16.114;2022-11-28T08:08:51;60.15;;;26.95;;
48623;SDS011;34422;45.802;16.114;2022-11-28T08:11:19;61.22;;;27.27;;
48623;SDS011;34422;45.802;16.114;2022-11-28T08:13:47;61.38;;;28.48;;
48623;SDS011;34422;45.802;16.114;2022-11-28T08:16:16;70.68;;;32.08;;
48623;SDS011;34422;45.802;16.114;2022-11-28T08:18:45;53.13;;;27.85;;
48623;SDS011;34422;45.802;16.114;2022-11-28T08:21:13;57.60;;;26.45;;
48623;SDS011;34422;45.802;16.114;2022-11-28T08:23:42;50.85;;;23.05;;
48623;SDS011;34422;45.802;16.114;2022-11-28T08:26:11;53.30;;;24.90;;
48623;SDS011;34422;45.802;16.114;2022-11-28T08:28:40;54.88;;;26.95;;
48623;SDS011;34422;45.802;16.114;2022-11-28T08:31:29;54.95;;;26.52;;
48623;SDS011;34422;45.802;16.114;2022-11-28T08:33:59;56.85;;;26.00;;
48623;SDS011;34422;45.802;16.114;2022-11-28T08:36:27;52.28;;;24.33;;
48623;SDS011;34422;45.802;16.114;2022-11-28T08:38:54;47.30;;;24.17;;
48623;SDS011;34422;45.802;16.114;2022-11-28T08:41:22;47.17;;;24.48;;
48623;SDS011;34422;45.802;16.114;2022-11-28T08:43:49;47.00;;;23.65;;
48623;SDS011;34422;45.802;16.114;2022-11-28T08:46:17;52.65;;;25.23;;
48623;SDS011;34422;45.802;16.114;2022-11-28T08:48:46;50.60;;;25.95;;
48623;SDS011;34422;45.802;16.114;2022-11-28T08:51:15;51.05;;;24.95;;
48623;SDS011;34422;45.802;16.114;2022-11-28T08:53:43;49.78;;;23.00;;
48623;SDS011;34422;45.802;16.114;2022-11-28T08:56:11;49.40;;;23.77;;
48623;SDS011;34422;45.802;16.114;2022-11-28T08:58:38;43.80;;;22.92;;
48623;SDS011;34422;45.802;16.114;2022-11-28T09:01:15;49.08;;;25.65;;
48623;SDS011;34422;45.802;16.114;2022-11-28T09:06:14;43.22;;;22.33;;
48623;SDS011;34422;45.802;16.114;2022-11-28T09:08:42;45.40;;;24.15;;
48623;SDS011;34422;45.802;16.114;2022-11-28T09:11:10;40.45;;;22.85;;
48623;SDS011;34422;45.802;16.114;2022-11-28T09:13:39;43.13;;;23.65;;
48623;SDS011;34422;45.802;16.114;2022-11-28T09:16:06;44.45;;;23.33;;
48623;SDS011;34422;45.802;16.114;2022-11-28T09:18:34;47.58;;;25.10;;
48623;SDS011;34422;45.802;16.114;2022-11-28T09:21:03;46.97;;;22.52;;
48623;SDS011;34422;45.802;16.114;2022-11-28T09:23:35;50.42;;;25.42;;
48623;SDS011;34422;45.802;16.114;2022-11-28T09:26:10;51.33;;;24.30;;
48623;SDS011;34422;45.802;16.114;2022-11-28T09:28:39;51.38;;;27.70;;
48623;SDS011;34422;45.802;16.114;2022-11-28T09:31:06;47.33;;;27.58;;
48623;SDS011;34422;45.802;16.114;2022-11-28T09:33:33;51.15;;;27.23;;
48623;SDS011;34422;45.802;16.114;2022-11-28T09:36:12;66.93;;;33.22;;
48623;SDS011;34422;45.802;16.114;2022-11-28T09:38:40;56.95;;;30.77;;
48623;SDS011;34422;45.802;16.114;2022-11-28T09:44:34;55.80;;;27.80;;
48623;SDS011;34422;45.802;16.114;2022-11-28T09:47:02;62.72;;;31.10;;
48623;SDS011;34422;45.802;16.114;2022-11-28T09:49:49;56.72;;;29.52;;
48623;SDS011;34422;45.802;16.114;2022-11-28T09:52:24;51.05;;;25.45;;
48623;SDS011;34422;45.802;16.114;2022-11-28T09:55:04;42.40;;;23.42;;
48623;SDS011;34422;45.802;16.114;2022-11-28T09:57:45;51.30;;;25.98;;
48623;SDS011;34422;45.802;16.114;2022-11-28T10:00:17;52.05;;;26.95;;
48623;SDS011;34422;45.802;16.114;2022-11-28T10:05:25;63.40;;;32.38;;
48623;SDS011;34422;45.802;16.114;2022-11-28T10:10:42;47.33;;;25.55;;
48623;SDS011;34422;45.802;16.114;2022-11-28T10:16:00;42.88;;;21.80;;
48623;SDS011;34422;45.802;16.114;2022-11-28T10:18:47;43.13;;;22.15;;
48623;SDS011;34422;45.802;16.114;2022-11-28T10:21:37;34.53;;;19.85;;
48623;SDS011;34422;45.802;16.114;2022-11-28T10:24:10;34.45;;;19.65;;
48623;SDS011;34422;45.802;16.114;2022-11-28T10:26:44;34.13;;;19.55;;
48623;SDS011;34422;45.802;16.114;2022-11-28T10:32:19;37.55;;;20.02;;
48623;SDS011;34422;45.802;16.114;2022-11-28T10:35:00;34.97;;;18.80;;
48623;SDS011;34422;45.802;16.114;2022-11-28T10:37:32;34.50;;;20.30;;
48623;SDS011;34422;45.802;16.114;2022-11-28T10:43:22;35.22;;;20.45;;
48623;SDS011;34422;45.802;16.114;2022-11-28T11:02:47;39.50;;;21.83;;
48623;SDS011;34422;45.802;16.114;2022-11-28T11:05:16;34.03;;;18.00;;
48623;SDS011;34422;45.802;16.114;2022-11-28T11:07:47;33.97;;;20.42;;
48623;SDS011;34422;45.802;16.114;2022-11-28T11:10:18;29.63;;;16.25;;
48623;SDS011;34422;45.802;16.114;2022-11-28T11:12:51;44.25;;;26.08;;
48623;SDS011;34422;45.802;16.114;2022-11-28T11:17:45;29.67;;;16.10;;
48623;SDS011;34422;45.802;16.114;2022-11-28T11:22:55;30.65;;;17.27;;
48623;SDS011;34422;45.802;16.114;2022-11-28T11:25:24;25.85;;;14.98;;
48623;SDS011;34422;45.802;16.114;2022-11-28T11:27:54;26.20;;;16.48;;
48623;SDS011;34422;45.802;16.114;2022-11-28T11:32:59;29.40;;;18.13;;
48623;SDS011;34422;45.802;16.114;2022-11-28T11:35:30;28.77;;;16.95;;
48623;SDS011;34422;45.802;16.114;2022-11-28T11:38:13;34.33;;;20.00;;
48623;SDS011;34422;45.802;16.114;2022-11-28T11:40:41;32.67;;;18.60;;
48623;SDS011;34422;45.802;16.114;2022-11-28T11:43:27;30.17;;;18.58;;
48623;SDS011;34422;45.802;16.114;2022-11-28T11:48:51;34.67;;;20.45;;
48623;SDS011;34422;45.802;16.114;2022-11-28T11:51:29;32.17;;;18.30;;
48623;SDS011;34422;45.802;16.114;2022-11-28T11:54:04;35.70;;;20.75;;
48623;SDS011;34422;45.802;16.114;2022-11-28T11:56:41;32.75;;;18.55;;
48623;SDS011;34422;45.802;16.114;2022-11-28T11:59:22;29.20;;;15.57;;
48623;SDS011;34422;45.802;16.114;2022-11-28T12:01:55;27.38;;;15.07;;
48623;SDS011;34422;45.802;16.114;2022-11-28T12:04:39;27.23;;;14.45;;
48623;SDS011;34422;45.802;16.114;2022-11-28T12:10:23;28.65;;;16.33;;
48623;SDS011;34422;45.802;16.114;2022-11-28T12:12:52;27.25;;;15.52;;
48623;SDS011;34422;45.802;16.114;2022-11-28T12:32:22;27.30;;;15.38;;
48623;SDS011;34422;45.802;16.114;2022-11-28T12:38:01;28.45;;;17.80;;
48623;SDS011;34422;45.802;16.114;2022-11-28T12:46:55;30.13;;;17.10;;
48623;SDS011;34422;45.802;16.114;2022-11-28T12:49:38;29.20;;;17.02;;
48623;SDS011;34422;45.802;16.114;2022-11-28T12:57:52;34.30;;;18.60;;
48623;SDS011;34422;45.802;16.114;2022-11-28T13:00:26;26.17;;;15.80;;
48623;SDS011;34422;45.802;16.114;2022-11-28T13:02:57;28.52;;;16.42;;
48623;SDS011;34422;45.802;16.114;2022-11-28T13:13:59;26.15;;;15.85;;
48623;SDS011;34422;45.802;16.114;2022-11-28T13:19:21;28.55;;;17.27;;
48623;SDS011;34422;45.802;16.114;2022-11-28T13:29:58;27.80;;;16.38;;
48623;SDS011;34422;45.802;16.114;2022-11-28T13:35:35;30.10;;;16.58;;
48623;SDS011;34422;45.802;16.114;2022-11-28T13:38:14;31.67;;;17.08;;
48623;SDS011;34422;45.802;16.114;2022-11-28T13:40:47;30.67;;;16.27;;
48623;SDS011;34422;45.802;16.114;2022-11-28T13:43:16;33.33;;;16.95;;
48623;SDS011;34422;45.802;16.114;2022-11-28T13:45:48;32.47;;;19.35;;
48623;SDS011;34422;45.802;16.114;2022-11-28T13:51:22;35.17;;;20.33;;
48623;SDS011;34422;45.802;16.114;2022-11-28T13:56:43;45.25;;;24.92;;
48623;SDS011;34422;45.802;16.114;2022-11-28T13:59:15;53.08;;;28.70;;
48623;SDS011;34422;45.802;16.114;2022-11-28T14:01:46;43.65;;;23.92;;
48623;SDS011;34422;45.802;16.114;2022-11-28T14:04:20;32.85;;;18.63;;
48623;SDS011;34422;45.802;16.114;2022-11-28T14:06:50;44.38;;;23.20;;
48623;SDS011;34422;45.802;16.114;2022-11-28T14:12:16;46.28;;;23.40;;
48623;SDS011;34422;45.802;16.114;2022-11-28T14:15:13;39.33;;;22.13;;
48623;SDS011;34422;45.802;16.114;2022-11-28T14:18:19;48.90;;;25.55;;
48623;SDS011;34422;45.802;16.114;2022-11-28T14:20:56;45.83;;;23.95;;
48623;SDS011;34422;45.802;16.114;2022-11-28T14:23:45;45.08;;;24.40;;
48623;SDS011;34422;45.802;16.114;2022-11-28T14:26:32;42.60;;;22.58;;
48623;SDS011;34422;45.802;16.114;2022-11-28T14:29:02;44.80;;;23.35;;
48623;SDS011;34422;45.802;16.114;2022-11-28T14:31:33;44.30;;;26.02;;
48623;SDS011;34422;45.802;16.114;2022-11-28T14:34:04;43.85;;;23.85;;
48623;SDS011;34422;45.802;16.114;2022-11-28T14:36:36;51.28;;;28.83;;
48623;SDS011;34422;45.802;16.114;2022-11-28T14:39:11;45.25;;;24.73;;
48623;SDS011;34422;45.802;16.114;2022-11-28T15:00:14;42.88;;;23.15;;
48623;SDS011;34422;45.802;16.114;2022-11-28T15:05:35;44.72;;;25.50;;
48623;SDS011;34422;45.802;16.114;2022-11-28T15:08:16;43.38;;;23.52;;
48623;SDS011;34422;45.802;16.114;2022-11-28T15:10:58;39.75;;;22.30;;
48623;SDS011;34422;45.802;16.114;2022-11-28T15:16:30;40.00;;;20.00;;
48623;SDS011;34422;45.802;16.114;2022-11-28T15:19:07;38.35;;;20.85;;
48623;SDS011;34422;45.802;16.114;2022-11-28T15:21:42;41.17;;;21.15;;
48623;SDS011;34422;45.802;16.114;2022-11-28T15:26:51;38.58;;;21.13;;
48623;SDS011;34422;45.802;16.114;2022-11-28T15:29:20;71.88;;;37.00;;
48623;SDS011;34422;45.802;16.114;2022-11-28T15:31:48;55.20;;;29.92;;
48623;SDS011;34422;45.802;16.114;2022-11-28T15:34:22;47.60;;;24.23;;
48623;SDS011;34422;45.802;16.114;2022-11-28T15:36:52;50.83;;;28.23;;
48623;SDS011;34422;45.802;16.114;2022-11-28T15:39:23;49.45;;;28.60;;
48623;SDS011;34422;45.802;16.114;2022-11-28T15:41:54;77.28;;;40.95;;
48623;SDS011;34422;45.802;16.114;2022-11-28T15:44:22;158.60;;;88.75;;
48623;SDS011;34422;45.802;16.114;2022-11-28T15:46:49;51.35;;;30.60;;
48623;SDS011;34422;45.802;16.114;2022-11-28T15:51:56;45.78;;;29.60;;
48623;SDS011;34422;45.802;16.114;2022-11-28T15:57:15;51.08;;;27.10;;
48623;SDS011;34422;45.802;16.114;2022-11-28T15:59:51;45.72;;;25.98;;
48623;SDS011;34422;45.802;16.114;2022-11-28T16:02:27;45.95;;;27.33;;
48623;SDS011;34422;45.802;16.114;2022-11-28T16:05:05;57.33;;;31.27;;
48623;SDS011;34422;45.802;16.114;2022-11-28T16:07:42;42.17;;;22.00;;
48623;SDS011;34422;45.802;16.114;2022-11-28T16:10:20;41.17;;;22.02;;
48623;SDS011;34422;45.802;16.114;2022-11-28T16:12:50;41.17;;;20.88;;
48623;SDS011;34422;45.802;16.114;2022-11-28T16:15:24;37.88;;;20.60;;
48623;SDS011;34422;45.802;16.114;2022-11-28T16:17:52;39.58;;;21.10;;
48623;SDS011;34422;45.802;16.114;2022-11-28T16:22:54;56.15;;;29.92;;
48623;SDS011;34422;45.802;16.114;2022-11-28T16:25:25;52.42;;;31.40;;
48623;SDS011;34422;45.802;16.114;2022-11-28T16:27:52;50.65;;;27.95;;
48623;SDS011;34422;45.802;16.114;2022-11-28T16:32:49;64.82;;;33.00;;
48623;SDS011;34422;45.802;16.114;2022-11-28T16:35:28;99.97;;;56.33;;
48623;SDS011;34422;45.802;16.114;2022-11-28T16:38:04;48.40;;;26.67;;
48623;SDS011;34422;45.802;16.114;2022-11-28T16:40:31;45.00;;;24.80;;
48623;SDS011;34422;45.802;16.114;2022-11-28T16:42:58;58.25;;;28.30;;
48623;SDS011;34422;45.802;16.114;2022-11-28T16:45:29;53.13;;;29.35;;
48623;SDS011;34422;45.802;16.114;2022-11-28T16:48:05;56.50;;;28.13;;
48623;SDS011;34422;45.802;16.114;2022-11-28T16:50:35;48.92;;;24.92;;
48623;SDS011;34422;45.802;16.114;2022-11-28T16:53:07;44.85;;;24.48;;
48623;SDS011;34422;45.802;16.114;2022-11-28T16:59:07;44.17;;;23.20;;
48623;SDS011;34422;45.802;16.114;2022-11-28T17:01:50;43.55;;;23.40;;
48623;SDS011;34422;45.802;16.114;2022-11-28T17:04:22;46.00;;;24.88;;
48623;SDS011;34422;45.802;16.114;2022-11-28T17:06:52;45.88;;;24.25;;
48623;SDS011;34422;45.802;16.114;2022-11-28T17:09:21;48.75;;;24.17;;
48623;SDS011;34422;45.802;16.114;2022-11-28T17:11:49;41.00;;;21.58;;
48623;SDS011;34422;45.802;16.114;2022-11-28T17:14:28;43.97;;;23.58;;
48623;SDS011;34422;45.802;16.114;2022-11-28T17:16:55;38.50;;;20.77;;
48623;SDS011;34422;45.802;16.114;2022-11-28T17:19:21;46.65;;;26.13;;
48623;SDS011;34422;45.802;16.114;2022-11-28T17:21:49;57.17;;;32.35;;
48623;SDS011;34422;45.802;16.114;2022-11-28T17:24:19;53.83;;;28.63;;
48623;SDS011;34422;45.802;16.114;2022-11-28T17:26:48;49.03;;;26.85;;
48623;SDS011;34422;45.802;16.114;2022-11-28T17:29:17;65.55;;;35.00;;
48623;SDS011;34422;45.802;16.114;2022-11-28T17:31:44;51.83;;;28.65;;
48623;SDS011;34422;45.802;16.114;2022-11-28T17:34:13;58.72;;;33.30;;
48623;SDS011;34422;45.802;16.114;2022-11-28T17:36:42;50.30;;;26.50;;
48623;SDS011;34422;45.802;16.114;2022-11-28T17:39:10;44.30;;;24.90;;
48623;SDS011;34422;45.802;16.114;2022-11-28T17:41:37;46.97;;;24.38;;
48623;SDS011;34422;45.802;16.114;2022-11-28T17:44:05;53.58;;;28.85;;
48623;SDS011;34422;45.802;16.114;2022-11-28T17:46:32;51.58;;;27.15;;
48623;SDS011;34422;45.802;16.114;2022-11-28T17:48:59;48.80;;;26.17;;
48623;SDS011;34422;45.802;16.114;2022-11-28T17:51:26;51.42;;;24.73;;
48623;SDS011;34422;45.802;16.114;2022-11-28T17:53:53;52.35;;;28.52;;
48623;SDS011;34422;45.802;16.114;2022-11-28T17:56:20;55.92;;;28.30;;
48623;SDS011;34422;45.802;16.114;2022-11-28T17:58:46;58.75;;;31.23;;
48623;SDS011;34422;45.802;16.114;2022-11-28T18:01:15;54.70;;;29.25;;
48623;SDS011;34422;45.802;16.114;2022-11-28T18:03:46;57.38;;;29.02;;
48623;SDS011;34422;45.802;16.114;2022-11-28T18:06:13;57.05;;;29.52;;
48623;SDS011;34422;45.802;16.114;2022-11-28T18:08:43;62.30;;;33.22;;
48623;SDS011;34422;45.802;16.114;2022-11-28T18:11:11;85.05;;;51.25;;